sensor_id;sensor_type;location;lat;lon;timestamp;pressure;altitude;pressure_sealevel;temperature;humidity
27643;BME280;15053;48.618;10.024;2023-07-13T00:00:10;94273.44;;;19.75;72.45
27643;BME280;15053;48.618;10.024;2023-07-13T00:02:40;94265.34;;;19.68;72.55
27643;BME280;15053;48.618;10.024;2023-07-13T00:05:07;94252.41;;;19.63;72.75
27643;BME280;15053;48.618;10.024;2023-07-13T00:07:34;94260.25;;;19.60;72.45
27643;BME280;15053;48.618;10.024;2023-07-13T00:10:02;94264.63;;;19.52;72.27
27643;BME280;15053;48.618;10.024;2023-07-13T00:12:31;94261.38;;;19.43;72.31
27643;BME280;15053;48.618;10.024;2023-07-13T00:15:00;94273.38;;;19.40;71.63
27643;BME280;15053;48.618;10.024;2023-07-13T00:17:28;94280.91;;;19.38;71.01
27643;BME280;15053;48.618;10.024;2023-07-13T00:19:55;94282.31;;;19.36;70.40
27643;BME280;15053;48.618;10.024;2023-07-13T00:22:23;94277.34;;;19.34;70.41
27643;BME280;15053;48.618;10.024;2023-07-13T00:24:53;94277.03;;;19.36;69.64
27643;BME280;15053;48.618;10.024;2023-07-13T00:27:22;94278.47;;;19.33;69.67
27643;BME280;15053;48.618;10.024;2023-07-13T00:29:49;94264.09;;;19.31;69.25
27643;BME280;15053;48.618;10.024;2023-07-13T00:32:17;94273.19;;;19.33;68.14
27643;BME280;15053;48.618;10.024;2023-07-13T00:34:43;94272.06;;;19.34;67.92
27643;BME280;15053;48.618;10.024;2023-07-13T00:37:10;94280.78;;;19.35;66.72
27643;BME280;15053;48.618;10.024;2023-07-13T00:39:37;94265.69;;;19.35;66.37
27643;BME280;15053;48.618;10.024;2023-07-13T00:42:05;94263.47;;;19.37;65.99
27643;BME280;15053;48.618;10.024;2023-07-13T00:44:32;94271.09;;;19.39;65.59
27643;BME280;15053;48.618;10.024;2023-07-13T00:46:59;94277.91;;;19.40;65.34
27643;BME280;15053;48.618;10.024;2023-07-13T00:49:28;94274.16;;;19.41;65.01
27643;BME280;15053;48.618;10.024;2023-07-13T00:52:07;94270.38;;;19.42;65.10
27643;BME280;15053;48.618;10.024;2023-07-13T00:54:41;94268.88;;;19.41;64.60
27643;BME280;15053;48.618;10.024;2023-07-13T00:57:13;94278.66;;;19.40;64.41
27643;BME280;15053;48.618;10.024;2023-07-13T00:59:43;94266.56;;;19.39;64.11
27643;BME280;15053;48.618;10.024;2023-07-13T01:02:12;94263.47;;;19.37;63.97
27643;BME280;15053;48.618;10.024;2023-07-13T01:04:38;94263.81;;;19.36;63.57
27643;BME280;15053;48.618;10.024;2023-07-13T01:07:06;94262.28;;;19.35;63.28
27643;BME280;15053;48.618;10.024;2023-07-13T01:09:33;94264.09;;;19.31;63.37
27643;BME280;15053;48.618;10.024;2023-07-13T01:12:00;94264.75;;;19.28;63.24
27643;BME280;15053;48.618;10.024;2023-07-13T01:14:26;94274.19;;;19.29;62.73
27643;BME280;15053;48.618;10.024;2023-07-13T01:16:54;94270.72;;;19.25;62.55
27643;BME280;15053;48.618;10.024;2023-07-13T01:19:42;94262.78;;;19.25;62.55
27643;BME280;15053;48.618;10.024;2023-07-13T01:22:14;94264.56;;;19.21;63.09
27643;BME280;15053;48.618;10.024;2023-07-13T01:24:47;94262.09;;;19.12;63.30
27643;BME280;15053;48.618;10.024;2023-07-13T01:27:20;94262.03;;;19.09;63.66
27643;BME280;15053;48.618;10.024;2023-07-13T01:29:47;94266.00;;;19.03;64.12
27643;BME280;15053;48.618;10.024;2023-07-13T01:32:17;94270.00;;;18.97;64.53
27643;BME280;15053;48.618;10.024;2023-07-13T01:34:50;94266.84;;;18.91;64.96
27643;BME280;15053;48.618;10.024;2023-07-13T01:37:17;94273.56;;;18.89;65.26
27643;BME280;15053;48.618;10.024;2023-07-13T01:39:43;94282.16;;;18.85;65.59
27643;BME280;15053;48.618;10.024;2023-07-13T01:42:10;94278.66;;;18.81;65.73
27643;BME280;15053;48.618;10.024;2023-07-13T01:44:36;94289.44;;;18.76;66.08
27643;BME280;15053;48.618;10.024;2023-07-13T01:47:03;94287.81;;;18.72;66.27
27643;BME280;15053;48.618;10.024;2023-07-13T01:49:30;94286.94;;;18.68;66.30
27643;BME280;15053;48.618;10.024;2023-07-13T01:51:57;94286.41;;;18.62;66.27
27643;BME280;15053;48.618;10.024;2023-07-13T01:54:23;94279.63;;;18.61;66.72
27643;BME280;15053;48.618;10.024;2023-07-13T01:56:50;94266.69;;;18.56;66.77
27643;BME280;15053;48.618;10.024;2023-07-13T01:59:17;94268.88;;;18.54;66.99
27643;BME280;15053;48.618;10.024;2023-07-13T10:00:25;94516.03;;;23.16;42.26
27643;BME280;15053;48.618;10.024;2023-07-13T10:03:01;94520.66;;;23.19;42.88
27643;BME280;15053;48.618;10.024;2023-07-13T10:05:41;94524.91;;;23.24;43.17
27643;BME280;15053;48.618;10.024;2023-07-13T10:08:23;94522.66;;;23.29;42.67
27643;BME280;15053;48.618;10.024;2023-07-13T10:11:14;94523.09;;;23.31;43.00
27643;BME280;15053;48.618;10.024;2023-07-13T10:14:17;94524.59;;;23.32;42.99
27643;BME280;15053;48.618;10.024;2023-07-13T10:16:45;94530.47;;;23.15;42.28
27643;BME280;15053;48.618;10.024;2023-07-13T10:19:17;94525.97;;;22.93;42.23
27643;BME280;15053;48.618;10.024;2023-07-13T10:21:57;94531.38;;;22.74;43.12
27643;BME280;15053;48.618;10.024;2023-07-13T10:24:30;94528.09;;;22.61;42.82
27643;BME280;15053;48.618;10.024;2023-07-13T10:27:03;94524.28;;;22.59;42.99
27643;BME280;15053;48.618;10.024;2023-07-13T10:29:36;94520.38;;;22.75;42.44
27643;BME280;15053;48.618;10.024;2023-07-13T10:32:11;94526.00;;;22.97;41.76
27643;BME280;15053;48.618;10.024;2023-07-13T10:34:41;94515.31;;;23.19;41.41
27643;BME280;15053;48.618;10.024;2023-07-13T10:37:19;94521.94;;;23.32;40.38
27643;BME280;15053;48.618;10.024;2023-07-13T10:39:47;94522.72;;;23.33;41.24
27643;BME280;15053;48.618;10.024;2023-07-13T10:42:28;94523.88;;;23.35;41.42
27643;BME280;15053;48.618;10.024;2023-07-13T10:44:55;94526.16;;;23.33;41.71
27643;BME280;15053;48.618;10.024;2023-07-13T10:47:22;94518.50;;;23.28;41.72
27643;BME280;15053;48.618;10.024;2023-07-13T10:49:51;94515.22;;;23.38;41.16
27643;BME280;15053;48.618;10.024;2023-07-13T10:52:47;94519.63;;;23.90;40.79
27643;BME280;15053;48.618;10.024;2023-07-13T10:58:20;94510.34;;;24.51;38.91
27643;BME280;15053;48.618;10.024;2023-07-13T11:01:08;94507.47;;;24.26;37.40
27643;BME280;15053;48.618;10.024;2023-07-13T11:04:00;94499.28;;;24.45;38.94
27643;BME280;15053;48.618;10.024;2023-07-13T11:11:48;94507.38;;;25.07;37.48
27643;BME280;15053;48.618;10.024;2023-07-13T11:14:37;94502.91;;;25.29;37.00
27643;BME280;15053;48.618;10.024;2023-07-13T11:23:17;94504.63;;;25.61;35.55
27643;BME280;15053;48.618;10.024;2023-07-13T11:25:44;94493.25;;;25.86;36.21
27643;BME280;15053;48.618;10.024;2023-07-13T11:30:44;94511.44;;;25.48;35.65
27643;BME280;15053;48.618;10.024;2023-07-13T11:33:44;94504.47;;;25.33;35.39
27643;BME280;15053;48.618;10.024;2023-07-13T11:36:16;94496.16;;;25.45;36.52
27643;BME280;15053;48.618;10.024;2023-07-13T11:38:55;94488.25;;;25.70;35.71
27643;BME280;15053;48.618;10.024;2023-07-13T11:41:31;94489.09;;;26.02;34.66
27643;BME280;15053;48.618;10.024;2023-07-13T11:44:11;94488.81;;;26.39;34.49
27643;BME280;15053;48.618;10.024;2023-07-13T11:46:38;94485.00;;;26.33;33.55
27643;BME280;15053;48.618;10.024;2023-07-13T11:49:06;94486.50;;;26.27;34.53
27643;BME280;15053;48.618;10.024;2023-07-13T11:51:35;94488.34;;;25.95;33.52
27643;BME280;15053;48.618;10.024;2023-07-13T11:54:05;94486.34;;;25.60;34.02
27643;BME280;15053;48.618;10.024;2023-07-13T11:56:34;94484.03;;;25.58;33.68
27643;BME280;15053;48.618;10.024;2023-07-13T11:59:06;94483.31;;;25.72;34.06
27643;BME280;15053;48.618;10.024;2023-07-13T12:01:34;94484.47;;;25.71;33.81
27643;BME280;15053;48.618;10.024;2023-07-13T12:04:03;94485.97;;;25.68;34.83
27643;BME280;15053;48.618;10.024;2023-07-13T12:06:32;94490.59;;;25.86;34.31
27643;BME280;15053;48.618;10.024;2023-07-13T12:09:01;94491.75;;;25.92;34.55
27643;BME280;15053;48.618;10.024;2023-07-13T12:11:30;94479.19;;;26.10;34.58
27643;BME280;15053;48.618;10.024;2023-07-13T12:13:56;94487.28;;;26.31;33.59
27643;BME280;15053;48.618;10.024;2023-07-13T12:16:31;94493.41;;;26.42;33.05
27643;BME280;15053;48.618;10.024;2023-07-13T12:19:00;94490.31;;;26.40;33.14
27643;BME280;15053;48.618;10.024;2023-07-13T12:21:32;94488.81;;;26.35;32.25
27643;BME280;15053;48.618;10.024;2023-07-13T12:24:00;94480.41;;;26.23;31.70
27643;BME280;15053;48.618;10.024;2023-07-13T12:26:29;94476.59;;;26.42;31.30
27643;BME280;15053;48.618;10.024;2023-07-13T12:29:00;94481.16;;;26.27;31.95
27643;BME280;15053;48.618;10.024;2023-07-13T12:31:40;94478.09;;;26.18;33.26
27643;BME280;15053;48.618;10.024;2023-07-13T12:34:21;94471.50;;;25.80;33.15
27643;BME280;15053;48.618;10.024;2023-07-13T12:37:08;94475.72;;;25.88;35.34
27643;BME280;15053;48.618;10.024;2023-07-13T12:39:45;94480.34;;;26.05;34.20
27643;BME280;15053;48.618;10.024;2023-07-13T12:42:24;94490.34;;;26.26;33.59
27643;BME280;15053;48.618;10.024;2023-07-13T12:45:01;94478.88;;;26.43;32.78
27643;BME280;15053;48.618;10.024;2023-07-13T12:47:29;94472.78;;;26.74;31.96
27643;BME280;15053;48.618;10.024;2023-07-13T12:49:58;94470.84;;;27.03;31.17
27643;BME280;15053;48.618;10.024;2023-07-13T12:52:31;94466.94;;;27.32;31.81
27643;BME280;15053;48.618;10.024;2023-07-13T12:55:16;94472.50;;;27.80;31.51
27643;BME280;15053;48.618;10.024;2023-07-13T12:57:52;94479.25;;;28.09;30.09
27643;BME280;15053;48.618;10.024;2023-07-13T13:00:23;94477.13;;;27.69;29.95
27643;BME280;15053;48.618;10.024;2023-07-13T13:02:53;94467.03;;;27.11;30.22
27643;BME280;15053;48.618;10.024;2023-07-13T13:05:30;94470.88;;;26.75;30.17
27643;BME280;15053;48.618;10.024;2023-07-13T13:07:58;94465.13;;;26.48;30.75
27643;BME280;15053;48.618;10.024;2023-07-13T13:10:25;94458.28;;;26.61;31.33
27643;BME280;15053;48.618;10.024;2023-07-13T13:12:52;94442.97;;;26.93;31.51
27643;BME280;15053;48.618;10.024;2023-07-13T13:15:19;94464.69;;;27.24;31.06
27643;BME280;15053;48.618;10.024;2023-07-13T13:17:47;94461.94;;;27.48;30.11
27643;BME280;15053;48.618;10.024;2023-07-13T13:20:19;94453.94;;;27.41;30.31
27643;BME280;15053;48.618;10.024;2023-07-13T13:22:46;94448.13;;;27.61;30.34
27643;BME280;15053;48.618;10.024;2023-07-13T13:25:14;94454.53;;;27.77;29.72
27643;BME280;15053;48.618;10.024;2023-07-13T13:27:42;94451.50;;;27.75;29.92
27643;BME280;15053;48.618;10.024;2023-07-13T13:32:40;94445.63;;;27.94;29.34
27643;BME280;15053;48.618;10.024;2023-07-13T13:35:13;94453.88;;;28.25;29.09
27643;BME280;15053;48.618;10.024;2023-07-13T13:37:40;94443.19;;;28.21;29.03
27643;BME280;15053;48.618;10.024;2023-07-13T13:40:28;94445.28;;;28.51;29.54
27643;BME280;15053;48.618;10.024;2023-07-13T13:42:54;94430.78;;;28.45;28.93
27643;BME280;15053;48.618;10.024;2023-07-13T13:45:22;94442.88;;;28.67;29.66
27643;BME280;15053;48.618;10.024;2023-07-13T13:47:50;94440.31;;;28.90;28.63
27643;BME280;15053;48.618;10.024;2023-07-13T13:50:21;94444.09;;;28.96;28.48
27643;BME280;15053;48.618;10.024;2023-07-13T13:52:48;94439.50;;;28.97;27.89
27643;BME280;15053;48.618;10.024;2023-07-13T13:55:20;94456.22;;;29.11;27.85
27643;BME280;15053;48.618;10.024;2023-07-13T13:57:47;94458.66;;;28.95;27.78
27643;BME280;15053;48.618;10.024;2023-07-13T14:00:16;94448.47;;;28.83;27.95
27643;BME280;15053;48.618;10.024;2023-07-13T14:02:45;94444.75;;;28.70;29.47
27643;BME280;15053;48.618;10.024;2023-07-13T14:05:15;94440.78;;;28.85;29.35
27643;BME280;15053;48.618;10.024;2023-07-13T14:07:44;94441.84;;;28.95;29.09
27643;BME280;15053;48.618;10.024;2023-07-13T14:10:14;94441.50;;;28.89;28.91
27643;BME280;15053;48.618;10.024;2023-07-13T14:12:45;94437.03;;;28.76;28.91
27643;BME280;15053;48.618;10.024;2023-07-13T14:15:20;94443.56;;;28.75;28.51
27643;BME280;15053;48.618;10.024;2023-07-13T14:17:47;94443.66;;;28.64;28.47
27643;BME280;15053;48.618;10.024;2023-07-13T14:20:18;94458.13;;;28.74;29.03
27643;BME280;15053;48.618;10.024;2023-07-13T14:22:45;94449.31;;;28.73;29.02
27643;BME280;15053;48.618;10.024;2023-07-13T14:25:13;94433.63;;;28.72;29.46
27643;BME280;15053;48.618;10.024;2023-07-13T14:27:41;94444.31;;;28.75;30.44
27643;BME280;15053;48.618;10.024;2023-07-13T14:30:17;94450.88;;;29.11;30.81
27643;BME280;15053;48.618;10.024;2023-07-13T14:32:44;94439.81;;;29.40;29.74
27643;BME280;15053;48.618;10.024;2023-07-13T14:35:12;94437.59;;;29.65;30.02
27643;BME280;15053;48.618;10.024;2023-07-13T14:37:40;94433.13;;;29.85;29.59
27643;BME280;15053;48.618;10.024;2023-07-13T14:40:28;94426.16;;;29.91;28.68
27643;BME280;15053;48.618;10.024;2023-07-13T14:42:55;94435.16;;;30.04;29.46
27643;BME280;15053;48.618;10.024;2023-07-13T14:45:21;94435.91;;;30.31;28.50
27643;BME280;15053;48.618;10.024;2023-07-13T14:47:48;94445.19;;;30.54;27.48
27643;BME280;15053;48.618;10.024;2023-07-13T14:50:17;94443.78;;;30.69;27.57
27643;BME280;15053;48.618;10.024;2023-07-13T14:52:45;94445.78;;;30.65;25.93
27643;BME280;15053;48.618;10.024;2023-07-13T14:55:17;94438.41;;;30.19;25.44
27643;BME280;15053;48.618;10.024;2023-07-13T14:57:45;94448.50;;;29.85;25.56
27643;BME280;15053;48.618;10.024;2023-07-13T15:00:18;94441.88;;;29.59;26.04
27643;BME280;15053;48.618;10.024;2023-07-13T15:02:48;94443.94;;;29.48;27.81
27643;BME280;15053;48.618;10.024;2023-07-13T15:05:28;94445.59;;;29.68;28.86
27643;BME280;15053;48.618;10.024;2023-07-13T15:07:59;94451.50;;;29.90;28.81
27643;BME280;15053;48.618;10.024;2023-07-13T15:10:27;94444.31;;;30.10;29.07
27643;BME280;15053;48.618;10.024;2023-07-13T15:13:13;94439.63;;;30.14;29.45
27643;BME280;15053;48.618;10.024;2023-07-13T15:15:43;94436.66;;;30.05;29.08
27643;BME280;15053;48.618;10.024;2023-07-13T15:18:15;94448.88;;;29.53;28.85
27643;BME280;15053;48.618;10.024;2023-07-13T15:20:44;94453.78;;;29.28;29.69
27643;BME280;15053;48.618;10.024;2023-07-13T15:23:13;94449.97;;;29.25;29.80
27643;BME280;15053;48.618;10.024;2023-07-13T15:25:41;94454.97;;;29.23;29.58
27643;BME280;15053;48.618;10.024;2023-07-13T15:28:08;94446.81;;;29.34;29.81
27643;BME280;15053;48.618;10.024;2023-07-13T15:30:40;94445.03;;;29.54;29.56
27643;BME280;15053;48.618;10.024;2023-07-13T15:33:16;94439.47;;;29.68;29.71
27643;BME280;15053;48.618;10.024;2023-07-13T15:35:45;94445.78;;;29.88;28.94
27643;BME280;15053;48.618;10.024;2023-07-13T15:38:17;94442.50;;;30.00;29.22
27643;BME280;15053;48.618;10.024;2023-07-13T15:40:45;94452.25;;;29.91;28.67
27643;BME280;15053;48.618;10.024;2023-07-13T15:43:12;94450.53;;;29.43;29.35
27643;BME280;15053;48.618;10.024;2023-07-13T15:45:39;94447.41;;;29.11;29.39
27643;BME280;15053;48.618;10.024;2023-07-13T15:48:19;94458.75;;;28.88;29.56
27643;BME280;15053;48.618;10.024;2023-07-13T15:50:55;94453.31;;;28.95;29.50
27643;BME280;15053;48.618;10.024;2023-07-13T15:53:32;94455.00;;;29.19;28.74
27643;BME280;15053;48.618;10.024;2023-07-13T15:55:59;94462.41;;;29.05;28.69
27643;BME280;15053;48.618;10.024;2023-07-13T15:58:26;94451.47;;;28.89;29.01
27643;BME280;15053;48.618;10.024;2023-07-13T16:00:54;94458.50;;;29.13;28.79
27643;BME280;15053;48.618;10.024;2023-07-13T16:03:21;94461.53;;;29.15;28.77
27643;BME280;15053;48.618;10.024;2023-07-13T16:05:49;94448.59;;;29.06;29.17
27643;BME280;15053;48.618;10.024;2023-07-13T16:08:22;94458.63;;;29.02;29.17
27643;BME280;15053;48.618;10.024;2023-07-13T16:10:50;94468.47;;;28.72;29.41
27643;BME280;15053;48.618;10.024;2023-07-13T16:13:19;94466.47;;;28.35;30.24
27643;BME280;15053;48.618;10.024;2023-07-13T16:15:47;94454.59;;;28.32;30.56
27643;BME280;15053;48.618;10.024;2023-07-13T16:18:14;94451.00;;;28.53;29.73
27643;BME280;15053;48.618;10.024;2023-07-13T16:20:45;94468.69;;;28.91;29.78
27643;BME280;15053;48.618;10.024;2023-07-13T16:23:14;94456.63;;;29.10;29.45
27643;BME280;15053;48.618;10.024;2023-07-13T16:25:41;94459.94;;;29.24;29.35
27643;BME280;15053;48.618;10.024;2023-07-13T16:28:09;94450.84;;;29.49;29.60
27643;BME280;15053;48.618;10.024;2023-07-13T16:30:36;94455.13;;;29.73;28.56
27643;BME280;15053;48.618;10.024;2023-07-13T16:33:04;94455.47;;;29.75;28.36
27643;BME280;15053;48.618;10.024;2023-07-13T16:35:41;94464.69;;;29.77;27.99
27643;BME280;15053;48.618;10.024;2023-07-13T16:38:20;94460.47;;;29.80;27.33
27643;BME280;15053;48.618;10.024;2023-07-13T16:40:47;94464.56;;;29.88;28.20
27643;BME280;15053;48.618;10.024;2023-07-13T16:43:16;94464.56;;;29.88;27.95
27643;BME280;15053;48.618;10.024;2023-07-13T16:45:48;94466.38;;;29.64;27.67
27643;BME280;15053;48.618;10.024;2023-07-13T16:48:19;94466.50;;;29.54;28.06
27643;BME280;15053;48.618;10.024;2023-07-13T16:50:52;94461.75;;;29.65;28.32
27643;BME280;15053;48.618;10.024;2023-07-13T16:53:22;94463.34;;;29.62;28.38
27643;BME280;15053;48.618;10.024;2023-07-13T16:55:50;94459.97;;;29.55;28.47
27643;BME280;15053;48.618;10.024;2023-07-13T16:58:17;94461.91;;;29.54;28.58
27643;BME280;15053;48.618;10.024;2023-07-13T17:00:44;94466.50;;;29.54;28.71
27643;BME280;15053;48.618;10.024;2023-07-13T17:03:10;94469.63;;;29.49;28.78
27643;BME280;15053;48.618;10.024;2023-07-13T17:05:41;94466.66;;;29.40;28.71
27643;BME280;15053;48.618;10.024;2023-07-13T17:08:13;94466.09;;;29.21;28.68
27643;BME280;15053;48.618;10.024;2023-07-13T17:10:41;94465.91;;;28.98;28.37
27643;BME280;15053;48.618;10.024;2023-07-13T17:13:11;94460.06;;;28.70;29.01
27643;BME280;15053;48.618;10.024;2023-07-13T17:15:38;94470.91;;;28.52;28.99
27643;BME280;15053;48.618;10.024;2023-07-13T17:18:05;94465.22;;;28.46;28.95
27643;BME280;15053;48.618;10.024;2023-07-13T17:20:39;94472.47;;;28.46;28.93
27643;BME280;15053;48.618;10.024;2023-07-13T17:23:14;94476.69;;;28.50;29.19
27643;BME280;15053;48.618;10.024;2023-07-13T17:25:42;94470.56;;;28.50;28.82
27643;BME280;15053;48.618;10.024;2023-07-13T17:28:10;94477.56;;;28.33;29.02
27643;BME280;15053;48.618;10.024;2023-07-13T17:30:38;94472.31;;;28.16;29.41
27643;BME280;15053;48.618;10.024;2023-07-13T17:33:07;94478.78;;;28.22;29.75
27643;BME280;15053;48.618;10.024;2023-07-13T17:35:38;94478.50;;;28.02;29.48
27643;BME280;15053;48.618;10.024;2023-07-13T17:38:05;94473.31;;;27.74;29.59
27643;BME280;15053;48.618;10.024;2023-07-13T17:40:32;94483.00;;;27.43;30.00
27643;BME280;15053;48.618;10.024;2023-07-13T17:42:59;94481.88;;;27.30;30.47
27643;BME280;15053;48.618;10.024;2023-07-13T17:45:28;94477.34;;;27.06;30.46
27643;BME280;15053;48.618;10.024;2023-07-13T17:47:56;94486.53;;;26.69;31.72
27643;BME280;15053;48.618;10.024;2023-07-13T17:50:34;94491.84;;;26.37;32.27
27643;BME280;15053;48.618;10.024;2023-07-13T17:55:34;94487.66;;;26.26;32.73
27643;BME280;15053;48.618;10.024;2023-07-13T17:58:01;94480.41;;;26.69;32.58
27643;BME280;15053;48.618;10.024;2023-07-13T18:00:32;94483.34;;;27.52;31.70
27643;BME280;15053;48.618;10.024;2023-07-13T18:03:21;94476.25;;;28.55;30.45
27643;BME280;15053;48.618;10.024;2023-07-13T18:05:50;94479.63;;;29.07;29.38
27643;BME280;15053;48.618;10.024;2023-07-13T18:08:25;94485.88;;;28.46;30.33
27643;BME280;15053;48.618;10.024;2023-07-13T18:10:55;94483.34;;;27.52;31.59
27643;BME280;15053;48.618;10.024;2023-07-13T18:13:22;94486.50;;;26.76;33.11
27643;BME280;15053;48.618;10.024;2023-07-13T18:15:49;94483.84;;;26.20;33.60
27643;BME280;15053;48.618;10.024;2023-07-13T18:18:20;94490.97;;;25.73;34.94
27643;BME280;15053;48.618;10.024;2023-07-13T18:20:47;94504.09;;;25.38;35.59
27643;BME280;15053;48.618;10.024;2023-07-13T18:23:18;94511.59;;;25.11;36.55
27643;BME280;15053;48.618;10.024;2023-07-13T18:25:46;94504.16;;;24.80;36.76
27643;BME280;15053;48.618;10.024;2023-07-13T18:28:15;94499.41;;;24.59;37.99
27643;BME280;15053;48.618;10.024;2023-07-13T18:30:44;94509.88;;;24.38;38.21
27643;BME280;15053;48.618;10.024;2023-07-13T18:33:23;94509.31;;;24.19;38.92
27643;BME280;15053;48.618;10.024;2023-07-13T18:35:50;94515.56;;;24.00;39.20
27643;BME280;15053;48.618;10.024;2023-07-13T18:38:20;94515.75;;;23.84;39.89
27643;BME280;15053;48.618;10.024;2023-07-13T18:40:47;94522.44;;;23.68;39.76
27643;BME280;15053;48.618;10.024;2023-07-13T18:43:14;94517.34;;;23.56;40.32
27643;BME280;15053;48.618;10.024;2023-07-13T18:45:41;94519.06;;;23.41;40.49
27643;BME280;15053;48.618;10.024;2023-07-13T18:48:20;94518.50;;;23.28;41.03
27643;BME280;15053;48.618;10.024;2023-07-13T18:50:50;94521.00;;;23.18;41.44
27643;BME280;15053;48.618;10.024;2023-07-13T18:53:18;94522.06;;;23.13;41.72
27643;BME280;15053;48.618;10.024;2023-07-13T18:55:46;94524.97;;;23.01;41.91
27643;BME280;15053;48.618;10.024;2023-07-13T18:58:13;94518.00;;;22.93;42.17
27643;BME280;15053;48.618;10.024;2023-07-13T19:00:41;94525.47;;;22.84;42.48
27643;BME280;15053;48.618;10.024;2023-07-13T19:03:17;94532.19;;;22.78;42.81
27643;BME280;15053;48.618;10.024;2023-07-13T19:05:45;94531.31;;;22.70;43.04
27643;BME280;15053;48.618;10.024;2023-07-13T19:08:26;94528.81;;;22.58;43.00
27643;BME280;15053;48.618;10.024;2023-07-13T19:10:53;94533.25;;;22.51;43.39
27643;BME280;15053;48.618;10.024;2023-07-13T19:13:23;94537.69;;;22.43;43.86
27643;BME280;15053;48.618;10.024;2023-07-13T19:15:50;94545.81;;;22.31;43.35
27643;BME280;15053;48.618;10.024;2023-07-13T19:18:21;94543.66;;;22.17;44.15
27643;BME280;15053;48.618;10.024;2023-07-13T19:20:51;94542.31;;;22.04;44.17
27643;BME280;15053;48.618;10.024;2023-07-13T19:23:34;94545.94;;;21.96;44.75
27643;BME280;15053;48.618;10.024;2023-07-13T19:26:16;94552.25;;;21.88;44.65
27643;BME280;15053;48.618;10.024;2023-07-13T19:28:44;94550.88;;;21.78;45.34
27643;BME280;15053;48.618;10.024;2023-07-13T19:31:28;94558.34;;;21.73;45.00
27643;BME280;15053;48.618;10.024;2023-07-13T19:34:00;94568.41;;;21.64;45.29
27643;BME280;15053;48.618;10.024;2023-07-13T19:36:39;94570.13;;;21.56;45.94
27643;BME280;15053;48.618;10.024;2023-07-13T19:39:16;94577.53;;;21.47;46.43
27643;BME280;15053;48.618;10.024;2023-07-13T19:41:42;94587.81;;;21.33;46.78
27643;BME280;15053;48.618;10.024;2023-07-13T19:44:12;94588.97;;;21.16;47.44
27643;BME280;15053;48.618;10.024;2023-07-13T19:46:39;94595.22;;;21.08;47.87
27643;BME280;15053;48.618;10.024;2023-07-13T19:49:06;94602.53;;;20.99;47.77
27643;BME280;15053;48.618;10.024;2023-07-13T19:51:33;94597.78;;;20.89;48.32
27643;BME280;15053;48.618;10.024;2023-07-13T19:54:12;94597.16;;;20.80;48.04
27643;BME280;15053;48.618;10.024;2023-07-13T19:56:40;94596.22;;;20.73;48.45
27643;BME280;15053;48.618;10.024;2023-07-13T19:59:24;94599.03;;;20.64;48.59
27643;BME280;15053;48.618;10.024;2023-07-13T20:01:52;94594.25;;;20.54;48.74
27643;BME280;15053;48.618;10.024;2023-07-13T20:04:19;94608.59;;;20.53;48.62
27643;BME280;15053;48.618;10.024;2023-07-13T20:06:46;94606.09;;;20.44;49.00
27643;BME280;15053;48.618;10.024;2023-07-13T20:09:18;94615.41;;;20.38;49.17
27643;BME280;15053;48.618;10.024;2023-07-13T20:12:10;94621.03;;;20.37;49.30
27643;BME280;15053;48.618;10.024;2023-07-13T20:14:38;94616.09;;;20.35;49.06
27643;BME280;15053;48.618;10.024;2023-07-13T20:17:22;94615.13;;;20.28;49.20
27643;BME280;15053;48.618;10.024;2023-07-13T20:19:52;94619.88;;;20.22;49.17
27643;BME280;15053;48.618;10.024;2023-07-13T20:22:20;94614.72;;;20.14;49.77
27643;BME280;15053;48.618;10.024;2023-07-13T20:24:47;94622.22;;;20.12;49.62
27643;BME280;15053;48.618;10.024;2023-07-13T20:27:14;94621.81;;;20.10;49.82
27643;BME280;15053;48.618;10.024;2023-07-13T20:29:45;94621.81;;;20.10;49.53
27643;BME280;15053;48.618;10.024;2023-07-13T20:32:12;94620.19;;;20.05;49.59
27643;BME280;15053;48.618;10.024;2023-07-13T20:34:40;94619.13;;;19.94;49.76
27643;BME280;15053;48.618;10.024;2023-07-13T20:37:24;94625.94;;;19.95;49.72
27643;BME280;15053;48.618;10.024;2023-07-13T20:39:54;94623.94;;;19.92;49.82
27643;BME280;15053;48.618;10.024;2023-07-13T20:42:21;94631.09;;;19.91;49.88
27643;BME280;15053;48.618;10.024;2023-07-13T20:44:47;94629.59;;;19.90;49.97
27643;BME280;15053;48.618;10.024;2023-07-13T20:47:15;94626.06;;;19.86;49.67
27643;BME280;15053;48.618;10.024;2023-07-13T20:49:45;94620.16;;;19.77;49.67
27643;BME280;15053;48.618;10.024;2023-07-13T20:52:11;94627.06;;;19.82;49.81
27643;BME280;15053;48.618;10.024;2023-07-13T20:54:41;94639.63;;;19.85;49.96
27643;BME280;15053;48.618;10.024;2023-07-13T20:57:11;94637.31;;;19.83;49.93
27643;BME280;15053;48.618;10.024;2023-07-13T20:59:39;94638.44;;;19.82;50.12
27643;BME280;15053;48.618;10.024;2023-07-13T21:02:24;94635.25;;;19.77;49.82
27643;BME280;15053;48.618;10.024;2023-07-13T21:04:52;94637.25;;;19.68;50.02
27643;BME280;15053;48.618;10.024;2023-07-13T21:07:19;94641.56;;;19.60;50.15
27643;BME280;15053;48.618;10.024;2023-07-13T21:09:47;94642.09;;;19.54;50.30
27643;BME280;15053;48.618;10.024;2023-07-13T21:12:14;94637.41;;;19.47;50.83
27643;BME280;15053;48.618;10.024;2023-07-13T21:14:40;94642.16;;;19.41;51.29
27643;BME280;15053;48.618;10.024;2023-07-13T21:17:13;94641.56;;;19.36;51.59
27643;BME280;15053;48.618;10.024;2023-07-13T21:19:40;94636.94;;;19.33;51.81
27643;BME280;15053;48.618;10.024;2023-07-13T21:22:12;94638.38;;;19.30;51.91
27643;BME280;15053;48.618;10.024;2023-07-13T21:24:39;94639.16;;;19.31;52.03
27643;BME280;15053;48.618;10.024;2023-07-13T21:27:08;94645.19;;;19.31;52.31
27643;BME280;15053;48.618;10.024;2023-07-13T21:29:35;94643.00;;;19.33;52.11